createdAt,value
2019-06-07T00:00:38.853Z,0.00
2019-06-07T00:01:22.545Z,0.00
2019-06-07T00:02:22.537Z,0.00
2019-06-07T00:03:29.116Z,0.00
2019-06-07T00:04:22.500Z,0.00
2019-06-07T00:05:22.502Z,0.00
2019-06-07T00:06:25.465Z,0.00
2019-06-07T00:07:22.457Z,0.00
2019-06-07T00:08:27.866Z,0.00
2019-06-07T00:09:22.854Z,0.00
2019-06-07T00:10:36.208Z,0.00
2019-06-07T00:11:22.408Z,0.00
2019-06-07T00:12:22.404Z,0.00
2019-06-07T00:13:22.608Z,0.00
2019-06-07T00:14:22.396Z,0.00
2019-06-07T00:15:28.710Z,0.00
2019-06-07T00:16:23.453Z,0.00
2019-06-07T00:17:22.337Z,0.00
2019-06-07T00:18:25.854Z,0.00
2019-06-07T00:19:22.322Z,0.00
2019-06-07T00:20:23.676Z,0.00
2019-06-07T00:22:12.340Z,0.00
2019-06-07T00:22:32.158Z,0.00
2019-06-07T00:23:22.907Z,0.00
2019-06-07T00:24:22.302Z,0.00
2019-06-07T00:25:24.443Z,0.00
2019-06-07T00:26:22.232Z,0.00
2019-06-07T00:27:22.604Z,0.00
2019-06-07T00:28:22.198Z,0.00
2019-06-07T00:29:22.274Z,0.00
2019-06-07T00:30:50.505Z,0.00
2019-06-07T00:31:24.079Z,0.00
2019-06-07T00:32:22.379Z,0.00
2019-06-07T00:33:24.751Z,0.00
2019-06-07T00:34:23.004Z,0.00
2019-06-07T00:35:22.527Z,0.00
2019-06-07T00:36:23.218Z,0.00
2019-06-07T00:37:25.219Z,0.00
2019-06-07T00:38:22.139Z,0.00
2019-06-07T00:39:25.290Z,0.00
2019-06-07T00:40:31.503Z,0.00
2019-06-07T00:41:22.297Z,0.00
2019-06-07T00:42:24.280Z,0.00
2019-06-07T00:43:27.973Z,0.00
2019-06-07T00:44:23.428Z,0.00
2019-06-07T00:45:24.467Z,0.00
2019-06-07T00:46:25.291Z,0.00
2019-06-07T00:47:25.032Z,0.00
2019-06-07T00:48:31.773Z,0.00
2019-06-07T00:49:39.845Z,0.00
2019-06-07T00:50:24.103Z,0.00
2019-06-07T00:51:23.916Z,0.00
2019-06-07T00:53:12.832Z,0.00
2019-06-07T00:53:31.819Z,0.00
2019-06-07T00:54:24.060Z,0.00
2019-06-07T00:55:27.075Z,0.00
2019-06-07T00:56:23.389Z,0.00
2019-06-07T00:57:24.129Z,0.00
2019-06-07T00:58:27.165Z,0.00
2019-06-07T00:59:28.414Z,0.00
2019-06-07T01:00:23.605Z,0.00
2019-06-07T01:01:24.874Z,0.00
2019-06-07T01:02:25.915Z,0.00
2019-06-07T01:03:25.193Z,0.00
2019-06-07T01:04:23.683Z,0.00
2019-06-07T01:05:26.104Z,0.00
2019-06-07T01:06:24.474Z,0.00
2019-06-07T01:07:21.983Z,0.00
2019-06-07T01:08:22.741Z,0.00
2019-06-07T01:09:23.968Z,0.00
2019-06-07T01:10:51.099Z,0.00
2019-06-07T01:11:23.473Z,0.00
2019-06-07T01:12:23.578Z,0.00
2019-06-07T01:13:23.865Z,0.00
2019-06-07T01:14:24.059Z,0.00
2019-06-07T01:15:25.607Z,0.00
2019-06-07T01:16:23.438Z,0.00
2019-06-07T01:17:33.123Z,0.00
2019-06-07T01:18:41.169Z,0.00
2019-06-07T01:19:25.917Z,0.00
2019-06-07T01:20:24.206Z,0.00
2019-06-07T01:21:28.117Z,0.00
2019-06-07T01:22:23.581Z,0.00
2019-06-07T01:24:00.809Z,0.00
2019-06-07T01:24:24.539Z,0.00
2019-06-07T01:25:23.761Z,0.00
2019-06-07T01:26:23.787Z,0.00
2019-06-07T01:27:24.204Z,0.00
2019-06-07T01:28:24.318Z,0.00
2019-06-07T01:29:22.271Z,0.00
2019-06-07T01:30:24.112Z,0.00
2019-06-07T01:31:24.539Z,0.00
2019-06-07T01:32:23.878Z,0.00
2019-06-07T01:33:23.479Z,0.00
2019-06-07T01:34:25.181Z,0.00
2019-06-07T01:35:22.086Z,0.00
2019-06-07T01:36:22.358Z,0.00
2019-06-07T01:37:24.905Z,0.00
2019-06-07T01:38:23.889Z,0.00
2019-06-07T01:39:23.770Z,0.00
2019-06-07T01:40:28.851Z,0.00
2019-06-07T01:41:23.657Z,0.00
2019-06-07T01:42:22.638Z,0.00
2019-06-07T01:43:26.098Z,0.00
2019-06-07T01:44:25.218Z,0.00
2019-06-07T01:45:21.392Z,0.00
2019-06-07T01:46:23.355Z,0.00
2019-06-07T01:47:24.743Z,0.00
2019-06-07T01:48:23.611Z,0.00
2019-06-07T01:49:22.159Z,0.00
2019-06-07T01:50:24.375Z,0.00
2019-06-07T01:51:21.925Z,0.00
2019-06-07T01:52:23.513Z,0.00
2019-06-07T01:53:23.695Z,0.00
2019-06-07T01:55:23.626Z,0.00
2019-06-07T01:56:22.548Z,0.00
2019-06-07T01:57:38.444Z,0.00
2019-06-07T01:58:22.242Z,0.00
2019-06-07T01:59:22.899Z,0.00
2019-06-07T02:00:21.998Z,0.00
2019-06-07T02:01:21.670Z,0.00
2019-06-07T02:02:22.776Z,0.00
2019-06-07T02:03:22.280Z,0.00
2019-06-07T02:04:23.323Z,0.00
2019-06-07T02:05:23.155Z,0.00
2019-06-07T02:06:21.693Z,0.00
2019-06-07T02:07:25.820Z,0.00
2019-06-07T02:08:22.217Z,0.00
2019-06-07T02:09:21.023Z,0.00
2019-06-07T02:10:24.726Z,0.00
2019-06-07T02:11:22.004Z,0.00
2019-06-07T02:12:28.148Z,0.00
2019-06-07T02:13:21.210Z,0.00
2019-06-07T02:14:23.538Z,0.00
2019-06-07T02:15:23.008Z,0.00
2019-06-07T02:16:21.823Z,0.00
2019-06-07T02:17:24.008Z,0.00
2019-06-07T02:18:22.955Z,0.00
2019-06-07T02:19:22.011Z,0.00
2019-06-07T02:20:22.960Z,0.00
2019-06-07T02:21:23.179Z,0.00
2019-06-07T02:22:22.898Z,0.00
2019-06-07T02:23:23.164Z,0.00
2019-06-07T02:24:24.481Z,0.00
2019-06-07T02:25:41.931Z,0.00
2019-06-07T02:26:20.748Z,0.00
2019-06-07T02:27:20.829Z,0.00
2019-06-07T02:28:42.251Z,0.00
2019-06-07T02:29:20.703Z,0.00
2019-06-07T02:30:44.249Z,0.00
2019-06-07T02:31:21.716Z,0.00
2019-06-07T02:32:21.722Z,0.00
2019-06-07T02:33:25.810Z,0.00
2019-06-07T02:34:21.514Z,0.00
2019-06-07T02:35:25.623Z,0.00
2019-06-07T02:36:25.621Z,0.00
2019-06-07T02:37:21.604Z,0.00
2019-06-07T02:38:22.253Z,0.00
2019-06-07T02:39:23.314Z,0.00
2019-06-07T02:40:21.933Z,0.00
2019-06-07T02:41:22.908Z,0.00
2019-06-07T02:42:25.221Z,0.00
2019-06-07T02:43:22.077Z,0.00
2019-06-07T02:44:20.524Z,0.00
2019-06-07T02:45:20.514Z,0.00
2019-06-07T02:46:28.018Z,0.00
2019-06-07T02:47:20.481Z,0.00
2019-06-07T02:48:20.518Z,0.00
2019-06-07T02:49:20.564Z,0.00
2019-06-07T02:50:20.455Z,0.00
2019-06-07T02:51:20.439Z,0.00
2019-06-07T02:52:20.477Z,0.00
2019-06-07T02:53:20.404Z,0.00
2019-06-07T02:54:20.398Z,0.00
2019-06-07T02:55:20.388Z,0.00
2019-06-07T02:56:42.101Z,0.00
2019-06-07T02:57:20.356Z,0.00
2019-06-07T02:58:20.341Z,0.00
2019-06-07T02:59:42.172Z,0.00
2019-06-07T03:00:41.978Z,0.00
2019-06-07T03:01:20.304Z,0.00
2019-06-07T03:02:20.301Z,0.00
2019-06-07T03:03:21.947Z,0.00
2019-06-07T03:04:20.265Z,0.00
2019-06-07T03:05:20.289Z,0.00
2019-06-07T03:06:20.236Z,0.00
2019-06-07T03:07:20.228Z,0.00
2019-06-07T03:08:20.230Z,0.00
2019-06-07T03:09:20.182Z,0.00
2019-06-07T03:10:20.215Z,0.00
2019-06-07T03:11:20.192Z,0.00
2019-06-07T03:12:20.168Z,0.00
2019-06-07T03:13:20.144Z,0.00
2019-06-07T03:14:20.141Z,0.00
2019-06-07T03:15:32.773Z,0.00
2019-06-07T03:16:20.116Z,0.00
2019-06-07T03:17:20.097Z,0.00
2019-06-07T03:18:20.095Z,0.00
2019-06-07T03:19:20.075Z,0.00
2019-06-07T03:20:20.053Z,0.00
2019-06-07T03:21:20.055Z,0.00
2019-06-07T03:22:20.017Z,0.00
2019-06-07T03:23:20.034Z,0.00
2019-06-07T03:24:20.001Z,0.00
2019-06-07T03:25:19.991Z,0.00
2019-06-07T03:26:19.966Z,0.00
2019-06-07T03:27:44.168Z,0.00
2019-06-07T03:28:20.002Z,0.00
2019-06-07T03:29:19.962Z,0.00
2019-06-07T03:30:46.540Z,0.00
2019-06-07T03:31:19.956Z,0.00
2019-06-07T03:32:19.960Z,0.00
2019-06-07T03:33:19.894Z,0.00
2019-06-07T03:34:19.875Z,0.00
2019-06-07T03:35:19.875Z,0.00
2019-06-07T03:36:25.646Z,0.00
2019-06-07T03:37:19.842Z,0.00
2019-06-07T03:38:19.838Z,0.00
2019-06-07T03:39:19.924Z,0.00
2019-06-07T03:40:19.805Z,0.00
2019-06-07T03:41:19.787Z,0.00
2019-06-07T03:42:19.773Z,0.00
2019-06-07T03:43:19.754Z,0.00
2019-06-07T03:44:19.757Z,0.00
2019-06-07T03:45:19.723Z,0.00
2019-06-07T03:46:19.746Z,0.00
2019-06-07T03:47:19.717Z,0.00
2019-06-07T03:48:19.723Z,0.00
2019-06-07T03:49:19.688Z,0.00
2019-06-07T03:50:19.693Z,0.00
2019-06-07T03:51:25.202Z,0.00
2019-06-07T03:52:19.667Z,0.00
2019-06-07T03:53:19.633Z,0.00
2019-06-07T03:54:19.635Z,0.00
2019-06-07T03:55:19.623Z,0.00
2019-06-07T03:56:19.582Z,0.00
2019-06-07T03:57:19.603Z,0.00
2019-06-07T03:58:46.222Z,0.00
2019-06-07T03:59:19.577Z,0.00
2019-06-07T04:00:19.544Z,0.00
2019-06-07T04:01:19.532Z,0.00
2019-06-07T04:02:19.518Z,0.00
2019-06-07T04:03:33.273Z,0.00
2019-06-07T04:04:19.489Z,0.00
2019-06-07T04:05:19.487Z,0.00
2019-06-07T04:06:19.491Z,0.00
2019-06-07T04:07:19.474Z,0.00
2019-06-07T04:08:19.541Z,0.00
2019-06-07T04:09:19.482Z,0.00
2019-06-07T04:10:19.434Z,0.00
2019-06-07T04:11:19.419Z,0.00
2019-06-07T04:12:19.419Z,0.00
2019-06-07T04:13:19.443Z,0.00
2019-06-07T04:14:19.591Z,0.00
2019-06-07T04:15:24.407Z,0.00
2019-06-07T04:16:25.609Z,0.00
2019-06-07T04:17:19.337Z,0.00
2019-06-07T04:18:19.316Z,0.00
2019-06-07T04:19:19.312Z,0.00
2019-06-07T04:20:19.311Z,0.00
2019-06-07T04:21:19.308Z,0.00
2019-06-07T04:22:19.284Z,0.00
2019-06-07T04:23:29.988Z,0.00
2019-06-07T04:24:19.247Z,0.00
2019-06-07T04:25:19.244Z,0.00
2019-06-07T04:26:19.247Z,0.00
2019-06-07T04:27:19.203Z,0.00
2019-06-07T04:28:19.207Z,0.00
2019-06-07T04:29:56.850Z,0.00
2019-06-07T04:30:19.169Z,0.00
2019-06-07T04:31:19.155Z,0.00
2019-06-07T04:32:19.147Z,0.00
2019-06-07T04:33:19.175Z,0.00
2019-06-07T04:34:19.129Z,0.00
2019-06-07T04:35:19.138Z,0.00
2019-06-07T04:36:37.317Z,0.00
2019-06-07T04:37:19.082Z,0.00
2019-06-07T04:38:19.073Z,0.00
2019-06-07T04:39:19.303Z,0.00
2019-06-07T04:40:19.054Z,0.00
2019-06-07T04:41:19.042Z,0.00
2019-06-07T04:42:19.018Z,0.00
2019-06-07T04:43:18.999Z,0.00
2019-06-07T04:44:19.003Z,0.00
2019-06-07T04:45:34.020Z,0.00
2019-06-07T04:46:19.006Z,0.00
2019-06-07T04:47:18.997Z,0.00
2019-06-07T04:48:18.955Z,0.00
2019-06-07T04:49:18.967Z,0.00
2019-06-07T04:50:18.941Z,0.00
2019-06-07T04:51:18.913Z,0.00
2019-06-07T04:52:18.902Z,0.00
2019-06-07T04:53:18.875Z,0.00
2019-06-07T04:54:18.882Z,0.00
2019-06-07T04:55:18.862Z,0.00
2019-06-07T04:56:18.837Z,0.00
2019-06-07T04:57:18.851Z,0.00
2019-06-07T04:58:18.817Z,0.00
2019-06-07T05:00:00.426Z,0.00
2019-06-07T05:00:48.770Z,0.00
2019-06-07T05:01:27.232Z,0.00
2019-06-07T05:02:18.779Z,0.00
2019-06-07T05:03:18.765Z,0.00
2019-06-07T05:04:18.795Z,0.00
2019-06-07T05:05:18.745Z,0.00
2019-06-07T05:06:18.709Z,0.00
2019-06-07T05:07:18.712Z,0.00
2019-06-07T05:08:28.142Z,0.00
2019-06-07T05:09:18.724Z,0.00
2019-06-07T05:10:18.675Z,0.00
2019-06-07T05:11:18.699Z,0.00
2019-06-07T05:12:18.647Z,0.00
2019-06-07T05:13:18.630Z,0.00
2019-06-07T05:14:18.630Z,0.00
2019-06-07T05:15:18.590Z,0.00
2019-06-07T05:16:18.590Z,0.00
2019-06-07T05:17:18.580Z,0.00
2019-06-07T05:18:18.552Z,0.00
2019-06-07T05:19:18.533Z,0.00
2019-06-07T05:20:18.528Z,0.00
2019-06-07T05:21:18.533Z,0.00
2019-06-07T05:22:18.499Z,0.00
2019-06-07T05:23:59.952Z,0.00
2019-06-07T05:24:18.486Z,0.00
2019-06-07T05:25:18.465Z,0.00
2019-06-07T05:26:18.476Z,0.00
2019-06-07T05:27:18.480Z,0.00
2019-06-07T05:28:18.440Z,0.00
2019-06-07T05:29:18.470Z,0.00
2019-06-07T05:30:56.417Z,0.00
2019-06-07T05:31:18.436Z,0.00
2019-06-07T05:32:18.369Z,0.00
2019-06-07T05:33:18.356Z,0.00
2019-06-07T05:34:18.358Z,0.00
2019-06-07T05:35:18.354Z,0.00
2019-06-07T05:36:18.341Z,0.00
2019-06-07T05:37:18.341Z,0.00
2019-06-07T05:38:18.322Z,0.00
2019-06-07T05:39:18.306Z,0.00
2019-06-07T05:40:18.294Z,0.00
2019-06-07T05:41:18.266Z,0.00
2019-06-07T05:42:18.248Z,0.00
2019-06-07T05:43:18.282Z,0.00
2019-06-07T05:44:18.223Z,0.00
2019-06-07T05:45:18.204Z,0.00
2019-06-07T05:46:18.202Z,0.00
2019-06-07T05:47:18.208Z,0.00
2019-06-07T05:48:18.170Z,0.00
2019-06-07T05:49:18.175Z,0.00
2019-06-07T05:50:38.396Z,0.00
2019-06-07T05:51:18.157Z,0.00
2019-06-07T05:52:18.125Z,0.00
2019-06-07T05:53:18.107Z,0.00
2019-06-07T05:54:18.123Z,0.00
2019-06-07T05:55:18.109Z,0.00
2019-06-07T05:56:18.145Z,0.00
2019-06-07T05:57:18.061Z,0.00
2019-06-07T05:58:18.127Z,0.00
2019-06-07T05:59:18.038Z,0.00
2019-06-07T06:00:18.017Z,0.00
2019-06-07T06:02:22.690Z,0.00
2019-06-07T06:03:17.980Z,0.00
2019-06-07T06:04:17.975Z,0.00
2019-06-07T06:05:32.342Z,0.00
2019-06-07T06:06:18.137Z,0.00
2019-06-07T06:07:17.975Z,0.00
2019-06-07T06:08:17.915Z,0.00
2019-06-07T06:09:17.922Z,0.00
2019-06-07T06:10:17.913Z,0.00
2019-06-07T06:11:17.864Z,0.00
2019-06-07T06:12:34.254Z,0.00
2019-06-07T06:13:17.849Z,0.00
2019-06-07T06:14:17.851Z,0.00
2019-06-07T06:15:17.848Z,0.00
2019-06-07T06:16:17.800Z,0.00
2019-06-07T06:17:17.813Z,0.00
2019-06-07T06:18:17.795Z,0.00
2019-06-07T06:19:17.770Z,0.00
2019-06-07T06:20:17.814Z,0.00
2019-06-07T06:21:20.131Z,0.00
2019-06-07T06:22:17.750Z,0.00
2019-06-07T06:23:17.731Z,0.00
2019-06-07T06:24:17.725Z,0.00
2019-06-07T06:25:31.584Z,0.00
2019-06-07T06:26:17.698Z,0.00
2019-06-07T06:27:55.680Z,0.00
2019-06-07T06:28:17.670Z,0.00
2019-06-07T06:29:17.645Z,0.00
2019-06-07T06:30:17.643Z,0.00
2019-06-07T06:31:17.637Z,0.00
2019-06-07T06:32:48.871Z,0.00
2019-06-07T06:33:33.241Z,0.00
2019-06-07T06:34:17.586Z,0.00
2019-06-07T06:35:17.563Z,0.00
2019-06-07T06:36:17.717Z,0.00
2019-06-07T06:37:17.587Z,0.00
2019-06-07T06:38:17.532Z,0.00
2019-06-07T06:39:17.613Z,0.00
2019-06-07T06:40:17.515Z,0.00
2019-06-07T06:41:17.536Z,0.00
2019-06-07T06:42:17.495Z,0.00
2019-06-07T06:43:17.460Z,0.00
2019-06-07T06:44:17.438Z,0.00
2019-06-07T06:45:17.437Z,0.00
2019-06-07T06:46:37.554Z,0.00
2019-06-07T06:47:17.427Z,0.00
2019-06-07T06:48:17.449Z,0.00
2019-06-07T06:49:17.382Z,0.00
2019-06-07T06:50:17.363Z,0.00
2019-06-07T06:51:17.369Z,0.00
2019-06-07T06:52:17.331Z,0.00
2019-06-07T06:53:17.344Z,0.00
2019-06-07T06:54:38.951Z,0.00
2019-06-07T06:55:17.308Z,0.00
2019-06-07T06:56:17.278Z,0.00
2019-06-07T06:57:19.919Z,0.00
2019-06-07T06:58:17.278Z,0.00
2019-06-07T07:00:17.253Z,0.00
2019-06-07T07:01:17.247Z,0.00
2019-06-07T07:02:17.210Z,0.00
2019-06-07T07:04:17.222Z,0.00
2019-06-07T07:05:17.174Z,0.00
2019-06-07T07:06:26.082Z,0.00
2019-06-07T07:07:17.147Z,0.00
2019-06-07T07:08:17.141Z,0.00
2019-06-07T07:09:17.126Z,0.00
2019-06-07T07:10:17.110Z,0.00
2019-06-07T07:11:17.087Z,0.00
2019-06-07T07:12:17.081Z,0.00
2019-06-07T07:13:17.067Z,0.00
2019-06-07T07:14:17.065Z,0.00
2019-06-07T07:15:17.044Z,0.00
2019-06-07T07:16:17.028Z,0.00
2019-06-07T07:17:17.029Z,0.00
2019-06-07T07:18:16.996Z,0.00
2019-06-07T07:19:17.005Z,0.00
2019-06-07T07:20:16.979Z,0.00
2019-06-07T07:21:16.952Z,0.00
2019-06-07T07:22:16.958Z,0.00
2019-06-07T07:23:17.383Z,0.00
2019-06-07T07:24:21.582Z,0.00
2019-06-07T07:25:16.922Z,0.00
2019-06-07T07:26:16.914Z,0.00
2019-06-07T07:27:16.900Z,0.00
2019-06-07T07:28:16.880Z,0.00
2019-06-07T07:29:16.870Z,0.00
2019-06-07T07:30:36.177Z,0.00
2019-06-07T07:31:16.819Z,0.00
2019-06-07T07:32:16.834Z,0.00
2019-06-07T07:33:16.952Z,0.00
2019-06-07T07:34:36.642Z,0.00
2019-06-07T07:35:16.793Z,0.00
2019-06-07T07:36:35.577Z,0.00
2019-06-07T07:37:16.761Z,0.00
2019-06-07T07:38:16.732Z,0.00
2019-06-07T07:39:17.312Z,0.00
2019-06-07T07:41:16.762Z,0.00
2019-06-07T07:42:21.345Z,0.00
2019-06-07T07:43:16.752Z,0.00
2019-06-07T07:44:16.683Z,0.00
2019-06-07T07:45:16.669Z,0.00
2019-06-07T07:46:31.063Z,0.00
2019-06-07T07:47:16.635Z,0.00
2019-06-07T07:48:18.464Z,0.00
2019-06-07T07:49:16.585Z,0.00
2019-06-07T07:50:16.594Z,0.00
2019-06-07T07:51:16.565Z,0.00
2019-06-07T07:52:16.567Z,0.00
2019-06-07T07:53:16.567Z,0.00
2019-06-07T07:54:16.532Z,0.00
2019-06-07T07:55:16.590Z,0.00
2019-06-07T07:56:16.494Z,0.00
2019-06-07T07:57:16.502Z,0.00
2019-06-07T07:58:16.530Z,0.00
2019-06-07T07:59:16.453Z,0.00
2019-06-07T08:00:49.709Z,0.00
2019-06-07T08:01:16.425Z,0.00
2019-06-07T08:02:16.439Z,0.00
2019-06-07T08:03:16.396Z,0.00
2019-06-07T08:04:16.389Z,0.00
2019-06-07T08:05:28.758Z,0.00
2019-06-07T08:06:16.363Z,0.00
2019-06-07T08:07:16.365Z,0.00
2019-06-07T08:08:16.348Z,0.00
2019-06-07T08:09:16.342Z,0.00
2019-06-07T08:10:16.330Z,0.00
2019-06-07T08:11:16.298Z,0.00
2019-06-07T08:12:16.332Z,0.00
2019-06-07T08:13:24.927Z,0.00
2019-06-07T08:14:16.284Z,0.00
2019-06-07T08:15:16.253Z,0.00
2019-06-07T08:16:18.719Z,0.00
2019-06-07T08:17:16.237Z,0.00
2019-06-07T08:18:16.201Z,0.00
2019-06-07T08:19:16.196Z,0.00
2019-06-07T08:20:16.179Z,0.00
2019-06-07T08:21:25.975Z,0.00
2019-06-07T08:22:16.166Z,0.00
2019-06-07T08:23:16.139Z,0.00
2019-06-07T08:24:16.127Z,0.00
2019-06-07T08:25:16.120Z,0.00
2019-06-07T08:26:16.138Z,0.00
2019-06-07T08:27:25.986Z,0.00
2019-06-07T08:28:16.076Z,0.00
2019-06-07T08:29:16.040Z,0.00
2019-06-07T08:30:47.154Z,0.00
2019-06-07T08:31:16.043Z,0.00
2019-06-07T08:32:16.010Z,0.00
2019-06-07T08:33:26.051Z,0.00
2019-06-07T08:34:15.976Z,0.00
2019-06-07T08:36:02.577Z,0.00
2019-06-07T08:36:25.098Z,0.00
2019-06-07T08:37:15.952Z,0.00
2019-06-07T08:38:26.509Z,0.00
2019-06-07T08:39:15.924Z,0.00
2019-06-07T08:40:15.914Z,0.00
2019-06-07T08:41:15.912Z,0.00
2019-06-07T08:42:21.621Z,0.00
2019-06-07T08:43:20.870Z,0.00
2019-06-07T08:44:23.656Z,0.00
2019-06-07T08:45:15.882Z,0.00
2019-06-07T08:46:15.869Z,0.00
2019-06-07T08:47:20.540Z,0.00
2019-06-07T08:48:27.615Z,0.00
2019-06-07T08:49:15.783Z,0.00
2019-06-07T08:50:15.776Z,0.00
2019-06-07T08:51:15.793Z,0.00
2019-06-07T08:52:15.759Z,0.00
2019-06-07T08:53:15.730Z,0.00
2019-06-07T08:54:23.007Z,0.00
2019-06-07T08:55:15.745Z,0.00
2019-06-07T08:56:15.690Z,0.00
2019-06-07T08:57:21.097Z,0.00
2019-06-07T08:58:15.650Z,0.00
2019-06-07T08:59:15.694Z,0.00
2019-06-07T09:00:42.931Z,0.00
2019-06-07T09:01:15.621Z,0.00
2019-06-07T09:02:23.794Z,0.00
2019-06-07T09:03:15.585Z,0.00
2019-06-07T09:04:15.585Z,0.00
2019-06-07T09:05:15.607Z,0.00
2019-06-07T09:07:01.121Z,0.00
2019-06-07T09:07:20.006Z,0.00
2019-06-07T09:08:29.102Z,0.00
2019-06-07T09:09:15.530Z,0.00
2019-06-07T09:10:15.742Z,0.00
2019-06-07T09:11:15.480Z,0.00
2019-06-07T09:12:15.663Z,0.00
2019-06-07T09:13:15.462Z,0.00
2019-06-07T09:14:15.433Z,0.00
2019-06-07T09:15:23.254Z,0.00
2019-06-07T09:16:15.428Z,0.00
2019-06-07T09:17:15.458Z,0.00
2019-06-07T09:18:42.044Z,0.00
2019-06-07T09:19:15.365Z,0.00
2019-06-07T09:20:35.230Z,0.00
2019-06-07T09:21:15.343Z,0.00
2019-06-07T09:22:15.343Z,0.00
2019-06-07T09:23:17.118Z,0.00
2019-06-07T09:24:15.311Z,0.00
2019-06-07T09:25:21.018Z,0.00
2019-06-07T09:26:18.209Z,0.00
2019-06-07T09:27:15.269Z,0.00
2019-06-07T09:28:19.910Z,0.00
2019-06-07T09:29:15.242Z,0.00
2019-06-07T09:30:18.588Z,0.00
2019-06-07T09:31:15.249Z,0.00
2019-06-07T09:32:18.381Z,0.00
2019-06-07T09:33:15.176Z,0.00
2019-06-07T09:34:15.597Z,0.00
2019-06-07T09:35:17.548Z,0.00
2019-06-07T09:36:15.134Z,0.00
2019-06-07T09:38:02.772Z,0.00
2019-06-07T09:38:24.992Z,0.00
2019-06-07T09:39:15.100Z,0.00
2019-06-07T09:40:24.909Z,0.00
2019-06-07T09:41:15.062Z,0.00
2019-06-07T09:42:15.058Z,0.00
2019-06-07T09:44:25.107Z,0.00
2019-06-07T09:45:15.026Z,0.00
2019-06-07T09:47:20.665Z,0.00
2019-06-07T09:47:44.017Z,0.00
2019-06-07T09:49:44.011Z,0.00
2019-06-07T09:50:43.980Z,0.00
2019-06-07T09:51:43.973Z,0.00
2019-06-07T09:52:57.796Z,0.00
2019-06-07T09:53:43.958Z,0.00
2019-06-07T09:55:06.146Z,0.00
2019-06-07T09:55:43.931Z,0.00
2019-06-07T09:56:43.916Z,0.00
2019-06-07T09:57:43.875Z,0.00
2019-06-07T09:58:53.365Z,0.00
2019-06-07T09:59:43.855Z,0.00
2019-06-07T10:00:43.860Z,0.00
2019-06-07T10:01:43.834Z,0.00
2019-06-07T10:02:43.896Z,0.00
2019-06-07T10:03:43.815Z,0.00
2019-06-07T10:04:43.796Z,0.00
2019-06-07T10:05:43.782Z,0.00
2019-06-07T10:06:43.783Z,0.00
2019-06-07T10:07:59.570Z,0.00
2019-06-07T10:10:43.717Z,0.00
2019-06-07T10:11:43.737Z,0.00
2019-06-07T10:12:43.676Z,0.00
2019-06-07T10:13:43.675Z,0.00
2019-06-07T10:14:45.197Z,0.00
2019-06-07T10:15:43.650Z,0.00
2019-06-07T10:16:46.874Z,0.00
2019-06-07T10:17:43.620Z,0.00
2019-06-07T10:18:43.586Z,0.00
2019-06-07T10:19:43.570Z,5.63
2019-06-07T10:20:43.615Z,5.63
2019-06-07T10:21:43.572Z,5.63
2019-06-07T10:22:43.540Z,5.63
2019-06-07T10:23:43.517Z,5.63
2019-06-07T10:24:43.535Z,5.63
2019-06-07T10:25:43.514Z,5.63
2019-06-07T10:26:43.482Z,5.63
2019-06-07T10:27:43.470Z,5.63
2019-06-07T10:28:43.444Z,5.63
2019-06-07T10:29:43.443Z,5.63
2019-06-07T10:30:43.416Z,5.63
2019-06-07T10:31:43.439Z,5.63
2019-06-07T10:32:43.408Z,5.63
2019-06-07T10:33:43.426Z,5.63
2019-06-07T10:34:43.394Z,5.63
2019-06-07T10:35:43.357Z,5.63
2019-06-07T10:36:43.443Z,5.63
2019-06-07T10:37:43.333Z,5.63
2019-06-07T10:38:43.340Z,5.63
2019-06-07T10:39:48.485Z,5.63
2019-06-07T10:40:43.300Z,5.63
2019-06-07T10:41:43.306Z,5.63
2019-06-07T10:42:43.286Z,5.63
2019-06-07T10:43:43.253Z,5.63
2019-06-07T10:44:43.254Z,5.63
2019-06-07T10:45:43.249Z,5.63
2019-06-07T10:46:43.233Z,5.63
2019-06-07T10:47:43.200Z,5.63
2019-06-07T10:48:43.176Z,5.63
2019-06-07T10:49:43.205Z,5.63
2019-06-07T10:50:43.172Z,5.63
2019-06-07T10:51:43.158Z,5.63
2019-06-07T10:52:43.127Z,5.63
2019-06-07T10:53:43.108Z,5.63
2019-06-07T10:54:43.127Z,5.63
2019-06-07T10:55:43.107Z,5.63
2019-06-07T10:56:43.120Z,5.63
2019-06-07T10:57:43.079Z,5.63
2019-06-07T10:58:43.060Z,5.63
2019-06-07T10:59:43.021Z,5.63
2019-06-07T11:00:43.037Z,5.63
2019-06-07T11:01:43.017Z,5.63
2019-06-07T11:02:43.062Z,5.63
2019-06-07T11:03:43.015Z,5.63
2019-06-07T11:04:42.983Z,5.63
2019-06-07T11:05:42.961Z,5.63
2019-06-07T11:06:42.961Z,5.63
2019-06-07T11:07:42.936Z,5.63
2019-06-07T11:08:42.912Z,5.63
2019-06-07T11:09:42.907Z,5.63
2019-06-07T11:10:42.938Z,5.63
2019-06-07T11:11:42.898Z,5.63
2019-06-07T11:12:42.863Z,5.63
2019-06-07T11:13:42.847Z,5.63
2019-06-07T11:14:42.852Z,5.63
2019-06-07T11:15:42.829Z,5.63
2019-06-07T11:16:42.807Z,5.63
2019-06-07T11:17:42.839Z,5.63
2019-06-07T11:18:42.793Z,5.63
2019-06-07T11:19:42.781Z,5.63
2019-06-07T11:20:42.759Z,5.63
2019-06-07T11:21:42.758Z,5.63
2019-06-07T11:22:42.752Z,11.25
2019-06-07T11:23:42.731Z,11.25
2019-06-07T11:24:42.723Z,11.25
2019-06-07T11:25:42.679Z,11.25
2019-06-07T11:26:42.686Z,11.25
2019-06-07T11:27:42.681Z,11.25
2019-06-07T11:28:42.680Z,16.88
2019-06-07T11:29:42.647Z,22.50
2019-06-07T11:30:42.641Z,22.50
2019-06-07T11:31:42.598Z,28.13
2019-06-07T11:32:42.607Z,39.38
2019-06-07T11:33:42.614Z,56.25
2019-06-07T11:34:42.588Z,135.00
2019-06-07T11:35:42.567Z,185.63
2019-06-07T11:36:42.556Z,196.88
2019-06-07T11:37:42.552Z,196.88
2019-06-07T11:38:42.541Z,174.38
2019-06-07T11:39:42.528Z,219.38
2019-06-07T11:40:42.503Z,270.00
2019-06-07T11:41:42.478Z,236.25
2019-06-07T11:42:42.470Z,196.88
2019-06-07T11:43:42.465Z,151.88
2019-06-07T11:44:55.665Z,101.25
2019-06-07T11:45:42.659Z,73.13
2019-06-07T11:46:42.421Z,73.13
2019-06-07T11:47:42.411Z,67.50
2019-06-07T11:48:42.417Z,67.50
2019-06-07T11:49:42.391Z,67.50
2019-06-07T11:50:42.383Z,67.50
2019-06-07T11:51:42.379Z,67.50
2019-06-07T11:52:45.436Z,67.50
2019-06-07T11:53:42.368Z,67.50
2019-06-07T11:54:42.350Z,67.50
2019-06-07T11:55:42.328Z,67.50
2019-06-07T11:56:42.319Z,67.50
2019-06-07T11:57:42.326Z,61.88
2019-06-07T11:58:42.289Z,61.88
2019-06-07T11:59:42.263Z,61.88
2019-06-07T12:00:42.275Z,61.88
2019-06-07T12:01:42.248Z,61.88
2019-06-07T12:02:42.254Z,61.88
2019-06-07T12:03:42.242Z,61.88
2019-06-07T12:04:42.238Z,61.88
2019-06-07T12:05:42.226Z,61.88
2019-06-07T12:06:42.196Z,61.88
2019-06-07T12:07:42.244Z,67.50
2019-06-07T12:08:42.175Z,67.50
2019-06-07T12:09:55.508Z,67.50
2019-06-07T12:10:42.855Z,67.50
2019-06-07T12:11:42.144Z,67.50
2019-06-07T12:12:42.155Z,67.50
2019-06-07T12:13:42.124Z,67.50
2019-06-07T12:14:42.123Z,67.50
2019-06-07T12:15:42.375Z,67.50
2019-06-07T12:16:42.124Z,73.13
2019-06-07T12:17:42.163Z,73.13
2019-06-07T12:18:42.100Z,73.13
2019-06-07T12:19:42.085Z,73.13
2019-06-07T12:20:42.076Z,73.13
2019-06-07T12:21:42.059Z,73.13
2019-06-07T12:22:42.062Z,73.13
2019-06-07T12:23:42.033Z,73.13
2019-06-07T12:24:42.024Z,73.13
2019-06-07T12:25:42.049Z,73.13
2019-06-07T12:26:42.032Z,73.13
2019-06-07T12:27:42.015Z,73.13
2019-06-07T12:28:41.981Z,73.13
2019-06-07T12:29:41.983Z,73.13
2019-06-07T12:30:41.989Z,73.13
2019-06-07T12:31:41.979Z,73.13
2019-06-07T12:32:41.962Z,73.13
2019-06-07T12:33:41.964Z,73.13
2019-06-07T12:34:41.990Z,73.13
2019-06-07T12:35:41.977Z,73.13
2019-06-07T12:36:41.918Z,78.75
2019-06-07T12:37:44.558Z,73.13
2019-06-07T12:38:41.906Z,67.50
2019-06-07T12:39:41.931Z,67.50
2019-06-07T12:40:54.543Z,67.50
2019-06-07T12:41:41.867Z,67.50
2019-06-07T12:42:41.875Z,67.50
2019-06-07T12:43:41.859Z,67.50
2019-06-07T12:44:41.853Z,67.50
2019-06-07T12:45:45.275Z,67.50
2019-06-07T12:46:41.837Z,61.88
2019-06-07T12:47:41.835Z,61.88
2019-06-07T12:48:41.826Z,61.88
2019-06-07T12:49:41.813Z,61.88
2019-06-07T12:50:43.192Z,61.88
2019-06-07T12:51:41.832Z,61.88
2019-06-07T12:52:41.794Z,61.88
2019-06-07T12:53:41.804Z,61.88
2019-06-07T12:54:41.771Z,61.88
2019-06-07T12:55:41.742Z,61.88
2019-06-07T12:56:41.783Z,61.88
2019-06-07T12:57:41.719Z,61.88
2019-06-07T12:58:41.824Z,61.88
2019-06-07T12:59:41.729Z,61.88
2019-06-07T13:00:41.711Z,61.88
2019-06-07T13:01:41.704Z,61.88
2019-06-07T13:02:41.711Z,56.25
2019-06-07T13:03:41.682Z,56.25
2019-06-07T13:04:42.128Z,56.25
2019-06-07T13:05:41.655Z,56.25
2019-06-07T13:06:41.648Z,56.25
2019-06-07T13:07:41.708Z,50.63
2019-06-07T13:08:41.666Z,50.63
2019-06-07T13:09:41.646Z,50.63
2019-06-07T13:10:41.626Z,45.00
2019-06-07T13:11:41.623Z,45.00
2019-06-07T13:12:43.979Z,45.00
2019-06-07T13:13:41.609Z,45.00
2019-06-07T13:14:41.590Z,45.00
2019-06-07T13:15:41.592Z,45.00
2019-06-07T13:16:41.556Z,45.00
2019-06-07T13:17:41.576Z,45.00
2019-06-07T13:18:41.532Z,45.00
2019-06-07T13:19:41.536Z,45.00
2019-06-07T13:20:41.531Z,45.00
2019-06-07T13:21:41.553Z,45.00
2019-06-07T13:22:41.499Z,45.00
2019-06-07T13:23:44.260Z,45.00